Time;durP1;ratioP1;P1;durP2;ratioP2;P2;SDS_P1;SDS_P2;PMS_P1;PMS_P2;Temp;Humidity;BMP_temperature;BMP_pressure;BME280_temperature;BME280_humidity;BME280_pressure;Samples;Min_cycle;Max_cycle;Signal;HPM_P1;HPM_P2
2022/04/24 00:00:38;;;;;;;;;;;;;;;14.84;60.23;99196.09;4972675;28;19918;-84
2022/04/24 00:03:04;;;;;;;;;;;;;;;14.82;61.70;99193.50;4969442;28;20336;-84
2022/04/24 00:05:29;;;;;;;;;;;;;;;14.79;60.45;99192.75;4969944;28;19918;-81
2022/04/24 00:07:54;;;;;;;;;;;;;;;14.87;60.31;99195.97;4971823;28;19976;-81
2022/04/24 00:10:20;;;;;;;;;;;;;;;14.69;62.06;99202.88;4971811;28;19964;-82
2022/04/24 00:12:45;;;;;;;;;;;;;;;14.60;61.80;99204.09;4972316;28;20021;-84
2022/04/24 00:15:10;;;;;;;;;;;;;;;14.46;62.15;99191.34;4970011;28;20409;-84
2022/04/24 00:17:37;;;;;;;;;;;;;;;14.55;62.10;99206.06;4969096;28;20674;-84
2022/04/24 00:20:02;;;;;;;;;;;;;;;14.44;62.27;99201.16;4968819;28;19928;-84
2022/04/24 00:22:27;;;;;;;;;;;;;;;14.60;61.18;99203.22;4969272;28;20391;-84
2022/04/24 00:24:53;;;;;;;;;;;;;;;14.36;62.15;99199.72;4968105;28;19918;-83
2022/04/24 00:27:18;;;;;;;;;;;;;;;14.53;61.67;99202.56;4968422;28;19918;-83
2022/04/24 00:29:43;;;;;;;;;;;;;;;14.63;60.27;99200.47;4969697;28;19945;-83
2022/04/24 00:32:09;;;;;;;;;;;;;;;14.90;59.37;99200.28;4970882;28;19914;-83
2022/04/24 00:34:35;;;;;;;;;;;;;;;14.60;60.43;99198.78;4968691;28;20682;-83
2022/04/24 00:37:00;;;;;;;;;;;;;;;14.92;58.90;99203.75;4968886;28;20017;-85
2022/04/24 00:39:26;;;;;;;;;;;;;;;14.99;59.32;99210.53;4969033;28;20650;-84
2022/04/24 00:41:51;;;;;;;;;;;;;;;14.72;59.45;99194.81;4968525;28;19918;-84
2022/04/24 00:44:17;;;;;;;;;;;;;;;14.79;59.26;99193.63;4968542;28;20316;-83
2022/04/24 00:46:50;;;;;;;;;;;;;;;14.83;59.11;99197.03;4968345;28;19918;-83
2022/04/24 00:49:15;;;;;;;;;;;;;;;14.92;59.38;99198.44;4968585;28;20282;-82
2022/04/24 00:51:42;;;;;;;;;;;;;;;14.81;59.13;99204.16;4966502;28;19929;-84
2022/04/24 00:54:08;;;;;;;;;;;;;;;14.70;59.22;99199.28;4968491;28;20000;-84
2022/04/24 00:56:33;;;;;;;;;;;;;;;14.94;59.05;99199.25;4968402;28;20356;-83
2022/04/24 00:58:59;;;;;;;;;;;;;;;15.07;58.80;99200.47;4968193;28;20686;-83
2022/04/24 01:01:25;;;;;;;;;;;;;;;14.98;58.31;99204.38;4968811;28;19918;-85
2022/04/24 01:03:51;;;;;;;;;;;;;;;15.11;58.18;99203.88;4968530;28;19927;-84
2022/04/24 01:06:16;;;;;;;;;;;;;;;15.01;57.92;99209.56;4968308;28;19914;-84
2022/04/24 01:08:42;;;;;;;;;;;;;;;15.01;58.42;99203.38;4968473;28;19925;-82
2022/04/24 01:11:07;;;;;;;;;;;;;;;14.91;58.45;99212.66;4967750;28;19925;-83
2022/04/24 01:13:33;;;;;;;;;;;;;;;14.66;59.48;99221.59;4968393;28;19937;-83
2022/04/24 01:15:58;;;;;;;;;;;;;;;14.64;59.04;99219.00;4968477;28;20324;-83
2022/04/24 01:18:25;;;;;;;;;;;;;;;14.63;59.55;99216.41;4968377;28;19918;-83
2022/04/24 01:20:50;;;;;;;;;;;;;;;14.77;59.02;99224.69;4968388;28;19922;-83
2022/04/24 01:23:16;;;;;;;;;;;;;;;14.47;59.51;99221.38;4968101;28;19924;-84
2022/04/24 01:25:41;;;;;;;;;;;;;;;14.51;58.47;99215.06;4968052;28;19921;-83
2022/04/24 01:28:08;;;;;;;;;;;;;;;14.80;58.10;99221.91;4966323;28;19914;-85
2022/04/24 01:30:33;;;;;;;;;;;;;;;15.09;56.46;99232.25;4968105;28;20007;-84
2022/04/24 01:32:59;;;;;;;;;;;;;;;15.18;57.29;99240.75;4968107;28;19960;-83
2022/04/24 01:35:24;;;;;;;;;;;;;;;15.08;56.96;99241.19;4969116;28;19964;-83
2022/04/24 01:37:49;;;;;;;;;;;;;;;15.18;57.40;99237.19;4972010;28;19914;-83
2022/04/24 01:40:15;;;;;;;;;;;;;;;14.84;57.77;99234.13;4970026;28;19918;-83
2022/04/24 01:42:40;;;;;;;;;;;;;;;14.84;58.50;99230.59;4970231;28;20016;-83
2022/04/24 01:45:06;;;;;;;;;;;;;;;14.99;57.81;99234.44;4971591;28;19961;-83
2022/04/24 01:47:31;;;;;;;;;;;;;;;15.09;57.03;99240.22;4969766;28;19925;-83
2022/04/24 01:49:57;;;;;;;;;;;;;;;15.01;58.39;99243.19;4971801;28;19913;-84
2022/04/24 01:52:22;;;;;;;;;;;;;;;14.78;58.41;99241.47;4971541;28;20328;-83
2022/04/24 01:54:47;;;;;;;;;;;;;;;14.86;57.71;99234.94;4971411;28;20297;-86
2022/04/24 01:57:13;;;;;;;;;;;;;;;14.96;57.69;99240.72;4971471;28;19914;-83
2022/04/24 01:59:38;;;;;;;;;;;;;;;14.74;57.56;99237.22;4971341;28;19921;-83
2022/04/24 02:02:04;;;;;;;;;;;;;;;14.83;57.76;99232.41;4971743;28;20665;-83
2022/04/24 02:04:29;;;;;;;;;;;;;;;15.01;57.83;99237.88;4971659;28;19924;-83
2022/04/24 02:06:54;;;;;;;;;;;;;;;14.85;57.70;99241.16;4971675;28;20316;-83
2022/04/24 02:09:20;;;;;;;;;;;;;;;14.86;57.76;99244.69;4971426;28;19921;-82
2022/04/24 02:11:45;;;;;;;;;;;;;;;14.97;57.38;99246.94;4971275;28;20381;-83
2022/04/24 02:14:10;;;;;;;;;;;;;;;14.98;57.22;99240.66;4970567;28;19968;-82
2022/04/24 02:16:36;;;;;;;;;;;;;;;14.81;58.15;99239.56;4969749;28;20065;-83
2022/04/24 02:19:01;;;;;;;;;;;;;;;14.76;58.41;99233.56;4971356;28;19918;-83
2022/04/24 02:21:28;;;;;;;;;;;;;;;14.67;59.20;99237.47;4971078;28;19918;-83
2022/04/24 02:23:54;;;;;;;;;;;;;;;14.57;59.54;99240.50;4971122;28;19918;-83
2022/04/24 02:26:19;;;;;;;;;;;;;;;14.50;60.48;99248.69;4970758;28;20297;-83
2022/04/24 02:28:46;;;;;;;;;;;;;;;14.42;60.48;99248.09;4970430;28;19925;-84
2022/04/24 02:31:11;;;;;;;;;;;;;;;13.53;63.95;99243.34;4970848;28;19929;-84
2022/04/24 02:33:36;;;;;;;;;;;;;;;13.76;63.73;99251.41;4970719;28;19921;-84
2022/04/24 02:36:02;;;;;;;;;;;;;;;13.88;63.16;99251.88;4971107;28;19918;-83
2022/04/24 02:38:28;;;;;;;;;;;;;;;14.05;62.82;99260.06;4970962;28;20309;-83
2022/04/24 02:40:54;;;;;;;;;;;;;;;14.08;62.56;99265.25;4970486;28;20393;-82
2022/04/24 02:43:19;;;;;;;;;;;;;;;14.08;62.57;99264.41;4970917;28;19925;-83
2022/04/24 02:45:45;;;;;;;;;;;;;;;14.08;63.23;99269.72;4971072;28;19925;-83
2022/04/24 02:48:10;;;;;;;;;;;;;;;14.05;62.88;99269.81;4970530;28;19965;-85
2022/04/24 02:50:35;;;;;;;;;;;;;;;13.88;63.21;99279.25;4970807;28;19937;-84
2022/04/24 02:53:01;;;;;;;;;;;;;;;13.69;64.13;99286.13;4970850;28;20009;-83
2022/04/24 02:55:26;;;;;;;;;;;;;;;13.82;63.30;99278.59;4970398;28;20316;-84
2022/04/24 02:57:52;;;;;;;;;;;;;;;13.68;63.62;99290.53;4970385;28;19918;-84
2022/04/24 03:00:25;;;;;;;;;;;;;;;13.74;63.56;99294.75;4970861;28;20013;-84
2022/04/24 03:02:51;;;;;;;;;;;;;;;13.61;64.41;99291.69;4970466;28;19944;-84
2022/04/24 03:05:19;;;;;;;;;;;;;;;13.58;64.04;99302.38;4970412;28;19973;-83
2022/04/24 03:07:45;;;;;;;;;;;;;;;13.41;64.06;99298.50;4970471;28;19918;-84
2022/04/24 03:10:11;;;;;;;;;;;;;;;13.12;65.39;99294.09;4969715;28;19968;-85
2022/04/24 03:12:37;;;;;;;;;;;;;;;13.18;65.02;99301.00;4970730;28;19957;-84
2022/04/24 03:15:03;;;;;;;;;;;;;;;12.98;65.55;99310.44;4970535;28;19914;-83
2022/04/24 03:17:29;;;;;;;;;;;;;;;12.93;66.31;99319.41;4970533;28;19937;-84
2022/04/24 03:19:55;;;;;;;;;;;;;;;12.81;67.21;99318.88;4970055;28;19922;-84
2022/04/24 03:22:20;;;;;;;;;;;;;;;12.76;67.77;99318.16;4969857;28;20325;-84
2022/04/24 03:24:45;;;;;;;;;;;;;;;12.86;67.44;99316.97;4968327;28;20459;-84
2022/04/24 03:27:11;;;;;;;;;;;;;;;13.01;67.01;99320.91;4969652;28;19972;-84
2022/04/24 03:29:37;;;;;;;;;;;;;;;13.12;66.59;99323.25;4970170;28;19925;-84
2022/04/24 03:32:02;;;;;;;;;;;;;;;13.08;66.46;99333.06;4969718;28;20008;-85
2022/04/24 03:34:27;;;;;;;;;;;;;;;13.14;65.86;99333.78;4969449;28;19914;-84
2022/04/24 03:36:53;;;;;;;;;;;;;;;13.18;66.16;99340.72;4969738;28;19926;-84
2022/04/24 03:39:20;;;;;;;;;;;;;;;13.26;65.99;99344.00;4969807;28;19988;-84
2022/04/24 03:41:45;;;;;;;;;;;;;;;13.21;65.81;99345.94;4969490;28;19917;-83
2022/04/24 03:44:10;;;;;;;;;;;;;;;13.27;65.97;99348.38;4969247;28;19929;-85
2022/04/24 03:46:36;;;;;;;;;;;;;;;13.42;65.55;99345.28;4969597;28;19964;-84
2022/04/24 03:49:01;;;;;;;;;;;;;;;13.13;66.53;99343.53;4969095;28;20020;-83
2022/04/24 03:51:26;;;;;;;;;;;;;;;13.05;66.71;99350.81;4969274;28;19973;-84
2022/04/24 03:53:52;;;;;;;;;;;;;;;12.98;67.14;99351.94;4969712;28;19914;-84
2022/04/24 03:56:17;;;;;;;;;;;;;;;13.03;67.52;99350.00;4968783;28;20001;-84
2022/04/24 03:58:42;;;;;;;;;;;;;;;13.12;67.32;99357.66;4968619;28;19925;-84
2022/04/24 04:01:08;;;;;;;;;;;;;;;13.24;67.01;99357.28;4969468;28;19918;-85
2022/04/24 04:03:33;;;;;;;;;;;;;;;13.26;66.78;99362.53;4968843;28;19937;-84
2022/04/24 04:05:58;;;;;;;;;;;;;;;13.40;66.37;99364.78;4969154;28;20019;-85
2022/04/24 04:08:24;;;;;;;;;;;;;;;13.20;66.96;99360.94;4969263;28;19965;-84
2022/04/24 04:10:49;;;;;;;;;;;;;;;13.31;66.95;99365.03;4968942;28;20008;-85
2022/04/24 04:13:15;;;;;;;;;;;;;;;13.45;66.98;99361.97;4969269;28;19913;-84
2022/04/24 04:15:40;;;;;;;;;;;;;;;13.51;67.19;99362.63;4968923;28;19914;-84
2022/04/24 04:18:05;;;;;;;;;;;;;;;13.74;66.54;99366.34;4969674;28;19918;-84
2022/04/24 04:20:31;;;;;;;;;;;;;;;14.05;65.95;99375.91;4969326;28;19976;-83
2022/04/24 04:22:56;;;;;;;;;;;;;;;14.01;67.01;99374.28;4968439;28;19925;-83
2022/04/24 04:25:25;;;;;;;;;;;;;;;14.17;67.03;99372.81;4968533;28;19929;-84
2022/04/24 04:27:50;;;;;;;;;;;;;;;14.29;66.46;99376.84;4968846;28;20080;-84
2022/04/24 04:30:16;;;;;;;;;;;;;;;14.45;66.52;99369.19;4968767;28;20460;-83
2022/04/24 04:32:41;;;;;;;;;;;;;;;14.63;65.66;99376.53;4968817;28;19953;-84
2022/04/24 04:35:09;;;;;;;;;;;;;;;14.80;65.62;99373.25;4969048;28;20410;-82
2022/04/24 04:37:35;;;;;;;;;;;;;;;15.12;65.15;99379.13;4968671;28;20016;-83
2022/04/24 04:40:00;;;;;;;;;;;;;;;15.18;65.37;99383.31;4968361;28;20015;-83
2022/04/24 04:42:25;;;;;;;;;;;;;;;15.20;65.45;99386.81;4968915;28;20330;-83
2022/04/24 04:44:51;;;;;;;;;;;;;;;15.26;64.74;99388.34;4969053;28;20008;-83
2022/04/24 04:47:16;;;;;;;;;;;;;;;15.25;65.70;99392.78;4968843;28;19973;-85
2022/04/24 04:49:41;;;;;;;;;;;;;;;15.21;65.98;99394.72;4968945;28;19921;-85
2022/04/24 04:52:07;;;;;;;;;;;;;;;15.13;65.81;99391.47;4968798;28;19918;-84
2022/04/24 04:54:32;;;;;;;;;;;;;;;15.24;65.63;99388.41;4966616;28;19968;-84
2022/04/24 04:56:57;;;;;;;;;;;;;;;15.35;65.15;99395.94;4964184;28;19918;-83
2022/04/24 04:59:23;;;;;;;;;;;;;;;15.32;65.25;99394.28;4956901;28;20437;-84
2022/04/24 05:01:48;;;;;;;;;;;;;;;15.32;64.90;99394.28;4953089;28;20005;-85
2022/04/24 05:04:13;;;;;;;;;;;;;;;15.60;64.33;99397.63;4948996;28;19993;-84
2022/04/24 05:06:39;;;;;;;;;;;;;;;15.66;64.22;99394.72;4949135;28;19933;-85
2022/04/24 05:09:05;;;;;;;;;;;;;;;15.74;63.39;99385.50;4949006;28;20413;-85
2022/04/24 05:11:30;;;;;;;;;;;;;;;16.28;62.36;99407.22;4952696;29;19924;-84
2022/04/24 05:13:55;;;;;;;;;;;;;;;16.35;61.04;99393.66;4953144;28;19919;-85
2022/04/24 05:16:21;;;;;;;;;;;;;;;16.47;61.38;99388.66;4953039;28;19977;-83
2022/04/24 05:18:46;;;;;;;;;;;;;;;16.70;60.83;99388.53;4952736;28;19980;-84
2022/04/24 05:21:11;;;;;;;;;;;;;;;16.66;58.33;99385.16;4953351;28;20390;-84
2022/04/24 05:23:37;;;;;;;;;;;;;;;17.08;57.79;99392.16;4952720;28;20440;-84
2022/04/24 05:26:02;;;;;;;;;;;;;;;17.18;57.69;99387.28;4950872;29;19919;-84
2022/04/24 05:28:28;;;;;;;;;;;;;;;17.41;57.51;99387.97;4952886;28;19954;-84
2022/04/24 05:30:54;;;;;;;;;;;;;;;17.89;56.13;99387.41;4952768;28;19969;-84
2022/04/24 05:33:19;;;;;;;;;;;;;;;18.09;54.56;99385.53;4952479;28;20009;-83
2022/04/24 05:35:45;;;;;;;;;;;;;;;18.27;53.51;99389.06;4950961;29;20012;-84
2022/04/24 05:38:11;;;;;;;;;;;;;;;17.95;55.72;99383.56;4952665;28;19925;-83
2022/04/24 05:40:36;;;;;;;;;;;;;;;17.69;55.17;99393.69;4952215;28;19914;-85
2022/04/24 05:43:01;;;;;;;;;;;;;;;17.61;56.14;99393.22;4953237;28;19925;-84
2022/04/24 05:45:27;;;;;;;;;;;;;;;17.83;54.75;99390.34;4952353;28;19919;-84
2022/04/24 05:47:54;;;;;;;;;;;;;;;18.31;53.53;99390.63;4952543;28;19981;-83
2022/04/24 05:50:19;;;;;;;;;;;;;;;18.27;53.90;99389.06;4952653;28;19914;-84
2022/04/24 05:52:45;;;;;;;;;;;;;;;18.29;54.80;99386.31;4952090;28;19918;-84
2022/04/24 05:55:11;;;;;;;;;;;;;;;18.68;53.10;99385.19;4952150;29;19918;-83
2022/04/24 05:57:36;;;;;;;;;;;;;;;19.17;51.47;99384.34;4952495;28;19912;-84
2022/04/24 06:00:03;;;;;;;;;;;;;;;19.16;51.93;99382.63;4952403;28;19919;-85
2022/04/24 06:02:28;;;;;;;;;;;;;;;19.73;50.61;99390.13;4952405;28;19927;-84
2022/04/24 06:04:54;;;;;;;;;;;;;;;19.61;49.18;99392.53;4952481;28;19914;-84
2022/04/24 06:07:20;;;;;;;;;;;;;;;19.77;51.34;99386.31;4950548;29;20747;-85
2022/04/24 06:09:45;;;;;;;;;;;;;;;19.97;49.94;99385.16;4952607;28;19911;-84
2022/04/24 06:12:10;;;;;;;;;;;;;;;19.70;48.07;99379.59;4951726;28;20428;-83
2022/04/24 06:14:36;;;;;;;;;;;;;;;19.96;48.64;99381.63;4951915;28;20320;-85
2022/04/24 06:17:03;;;;;;;;;;;;;;;20.84;48.70;99381.72;4954603;28;19922;-84
2022/04/24 06:19:29;;;;;;;;;;;;;;;21.11;46.80;99378.25;4961099;28;19922;-84
2022/04/24 06:21:54;;;;;;;;;;;;;;;20.38;46.23;99382.69;4963804;28;19949;-83
2022/04/24 06:24:20;;;;;;;;;;;;;;;20.00;50.73;99384.97;4963420;28;19957;-83
2022/04/24 06:26:45;;;;;;;;;;;;;;;20.85;47.87;99378.09;4951828;28;20389;-84
2022/04/24 06:29:11;;;;;;;;;;;;;;;21.18;46.21;99386.75;4952534;28;20389;-84
2022/04/24 06:31:36;;;;;;;;;;;;;;;20.78;44.31;99384.78;4952281;28;19925;-83
2022/04/24 06:34:02;;;;;;;;;;;;;;;20.99;46.54;99387.97;4954568;28;19933;-84
2022/04/24 06:36:27;;;;;;;;;;;;;;;21.04;45.50;99377.78;4954305;28;19920;-83
2022/04/24 06:38:52;;;;;;;;;;;;;;;21.06;45.52;99377.69;4953612;28;20001;-83
2022/04/24 06:41:18;;;;;;;;;;;;;;;21.06;46.02;99356.25;4953183;28;20385;-85
2022/04/24 06:43:43;;;;;;;;;;;;;;;21.64;43.81;99368.59;4954214;28;19925;-84
2022/04/24 06:46:08;;;;;;;;;;;;;;;21.73;43.78;99371.63;4953679;28;19923;-82
2022/04/24 06:48:34;;;;;;;;;;;;;;;21.92;45.21;99374.81;4958300;28;19930;-81
2022/04/24 06:50:59;;;;;;;;;;;;;;;21.90;43.43;99371.34;4952406;28;19969;-81
2022/04/24 06:53:25;;;;;;;;;;;;;;;22.06;41.33;99371.19;4950273;29;19926;-83
2022/04/24 06:55:53;;;;;;;;;;;;;;;21.96;41.59;99370.06;4951735;28;19918;-85
2022/04/24 06:58:19;;;;;;;;;;;;;;;21.69;43.04;99370.09;4951448;28;19961;-84
2022/04/24 07:00:45;;;;;;;;;;;;;;;22.05;43.41;99366.75;4951421;28;20412;-84
2022/04/24 07:03:14;;;;;;;;;;;;;;;22.93;41.59;99370.63;4952410;28;19925;-86
2022/04/24 07:05:40;;;;;;;;;;;;;;;22.83;40.37;99363.19;4951197;28;19938;-85
2022/04/24 07:08:06;;;;;;;;;;;;;;;22.87;41.60;99364.69;4951089;28;19933;-84
2022/04/24 07:10:31;;;;;;;;;;;;;;;22.61;41.01;99368.38;4950688;28;19965;-85
2022/04/24 07:12:56;;;;;;;;;;;;;;;22.81;41.28;99364.28;4949466;29;19972;-85
2022/04/24 07:15:22;;;;;;;;;;;;;;;23.16;41.49;99360.91;4950896;28;19922;-84
2022/04/24 07:17:49;;;;;;;;;;;;;;;23.39;39.14;99357.41;4950800;28;19914;-84
2022/04/24 07:20:15;;;;;;;;;;;;;;;23.68;41.74;99364.28;4950445;28;19929;-84
2022/04/24 07:22:47;;;;;;;;;;;;;;;23.83;39.90;99365.81;4950994;28;19922;-84
2022/04/24 07:25:16;;;;;;;;;;;;;;;23.91;40.45;99367.97;4950407;29;19925;-84
2022/04/24 07:27:42;;;;;;;;;;;;;;;24.34;38.76;99375.44;4950840;28;19918;-83
2022/04/24 07:30:13;;;;;;;;;;;;;;;24.29;38.47;99372.25;4950651;28;19925;-84
2022/04/24 07:32:39;;;;;;;;;;;;;;;24.83;38.59;99366.25;4949572;28;19918;-84
2022/04/24 07:35:05;;;;;;;;;;;;;;;24.67;39.38;99369.31;4950275;28;19918;-84
2022/04/24 07:37:32;;;;;;;;;;;;;;;25.20;36.34;99374.06;4951061;28;19919;-83
2022/04/24 07:39:58;;;;;;;;;;;;;;;25.33;36.64;99362.31;4950924;28;19919;-86
2022/04/24 07:42:23;;;;;;;;;;;;;;;25.34;36.02;99364.03;4948864;29;19915;-84
2022/04/24 07:44:51;;;;;;;;;;;;;;;25.12;38.12;99364.91;4951106;29;19911;-84
2022/04/24 07:47:16;;;;;;;;;;;;;;;25.32;39.15;99358.75;4950416;28;19914;-85
2022/04/24 07:49:41;;;;;;;;;;;;;;;25.65;36.67;99356.09;4950106;28;20303;-85
2022/04/24 07:52:07;;;;;;;;;;;;;;;25.13;37.87;99359.38;4965277;28;20323;-85
2022/04/24 07:54:32;;;;;;;;;;;;;;;25.39;36.00;99356.41;4969636;28;19918;-85
2022/04/24 07:56:57;;;;;;;;;;;;;;;25.71;36.22;99355.59;4969398;28;19918;-85
2022/04/24 07:59:23;;;;;;;;;;;;;;;25.88;36.97;99354.19;4960742;28;19926;-84
2022/04/24 08:01:51;;;;;;;;;;;;;;;25.67;36.40;99356.81;4959791;28;20361;-86
2022/04/24 08:04:17;;;;;;;;;;;;;;;25.25;34.90;99354.81;4968304;28;19914;-84
2022/04/24 08:06:42;;;;;;;;;;;;;;;24.86;37.37;99358.91;4969015;28;19929;-84
2022/04/24 08:09:07;;;;;;;;;;;;;;;24.80;37.20;99353.00;4970070;28;19953;-84
2022/04/24 08:11:32;;;;;;;;;;;;;;;25.17;36.76;99336.53;4969434;28;19918;-84
2022/04/24 08:13:58;;;;;;;;;;;;;;;25.00;37.40;99342.47;4969161;28;19933;-85
2022/04/24 08:16:26;;;;;;;;;;;;;;;25.24;36.11;99339.63;4969029;28;20332;-85
2022/04/24 08:18:51;;;;;;;;;;;;;;;24.99;37.16;99332.63;4969362;28;19922;-84
2022/04/24 08:21:17;;;;;;;;;;;;;;;24.82;38.62;99332.19;4970960;28;19922;-85
2022/04/24 08:23:43;;;;;;;;;;;;;;;24.57;38.00;99330.56;4970158;28;19914;-86
2022/04/24 08:26:10;;;;;;;;;;;;;;;25.00;37.41;99328.97;4969677;28;20444;-84
2022/04/24 08:28:35;;;;;;;;;;;;;;;25.24;37.08;99319.84;4969047;28;19938;-84
2022/04/24 08:31:00;;;;;;;;;;;;;;;25.60;37.47;99315.97;4967866;28;20305;-84
2022/04/24 08:33:26;;;;;;;;;;;;;;;25.50;36.75;99310.50;4960487;28;19968;-87
2022/04/24 08:35:51;;;;;;;;;;;;;;;25.74;36.72;99302.16;4949922;28;19957;-85
2022/04/24 08:38:17;;;;;;;;;;;;;;;26.09;36.46;99308.31;4950371;28;20415;-85
2022/04/24 08:40:43;;;;;;;;;;;;;;;25.63;36.70;99298.69;4949247;28;19922;-84
2022/04/24 08:43:08;;;;;;;;;;;;;;;25.90;38.65;99299.03;4949909;28;19981;-84
2022/04/24 08:45:34;;;;;;;;;;;;;;;25.83;36.96;99300.53;4950026;28;19941;-86
2022/04/24 08:48:00;;;;;;;;;;;;;;;26.01;35.72;99295.47;4968434;28;20016;-84
2022/04/24 08:50:27;;;;;;;;;;;;;;;26.18;37.18;99288.59;4969632;28;19918;-85
2022/04/24 08:52:54;;;;;;;;;;;;;;;26.26;38.28;99286.06;4969527;28;19925;-84
2022/04/24 08:55:19;;;;;;;;;;;;;;;26.18;36.05;99282.31;4968698;28;19918;-85
2022/04/24 08:57:44;;;;;;;;;;;;;;;25.71;37.41;99280.81;4965631;28;19981;-86
2022/04/24 09:00:10;;;;;;;;;;;;;;;25.82;37.18;99282.59;4968446;28;20436;-84
2022/04/24 09:02:36;;;;;;;;;;;;;;;25.68;36.99;99281.06;4968988;28;20009;-84
2022/04/24 09:05:03;;;;;;;;;;;;;;;25.61;37.81;99276.31;4968995;28;20373;-86
2022/04/24 09:07:32;;;;;;;;;;;;;;;25.29;37.94;99277.19;4969728;28;19918;-85
2022/04/24 09:10:03;;;;;;;;;;;;;;;25.36;40.30;99272.97;4969533;28;19918;-84
2022/04/24 09:12:29;;;;;;;;;;;;;;;25.01;38.54;99266.78;4968692;28;19917;-86
2022/04/24 09:14:55;;;;;;;;;;;;;;;25.69;38.43;99260.34;4968654;28;19924;-85
2022/04/24 09:17:22;;;;;;;;;;;;;;;26.09;38.71;99259.66;4968773;28;19925;-86
2022/04/24 09:19:48;;;;;;;;;;;;;;;25.59;37.91;99256.69;4968478;28;19961;-86
2022/04/24 09:22:13;;;;;;;;;;;;;;;25.88;38.55;99248.81;4968919;28;20336;-86
2022/04/24 09:24:41;;;;;;;;;;;;;;;25.75;36.48;99254.44;4968321;28;19917;-85
2022/04/24 09:27:07;;;;;;;;;;;;;;;25.95;37.13;99241.03;4967978;28;19918;-86
2022/04/24 09:29:33;;;;;;;;;;;;;;;26.05;37.66;99244.69;4968195;28;20651;-85
2022/04/24 09:31:58;;;;;;;;;;;;;;;26.02;38.05;99235.00;4970752;28;19922;-84
2022/04/24 09:34:28;;;;;;;;;;;;;;;25.74;39.11;99237.34;4968748;28;19921;-86
2022/04/24 09:37:01;;;;;;;;;;;;;;;26.08;39.09;99236.31;4968540;28;19969;-86
2022/04/24 09:39:33;;;;;;;;;;;;;;;25.58;38.45;99228.84;4968760;28;19914;-86
2022/04/24 09:42:06;;;;;;;;;;;;;;;25.50;39.23;99224.09;4968582;28;19956;-85
2022/04/24 09:44:48;;;;;;;;;;;;;;;25.38;38.98;99217.88;4962577;28;19985;-86
2022/04/24 09:47:14;;;;;;;;;;;;;;;25.12;37.90;99224.59;4951273;28;19930;-85
2022/04/24 09:49:43;;;;;;;;;;;;;;;24.98;39.32;99218.47;4947379;29;19918;-85
2022/04/24 09:52:15;;;;;;;;;;;;;;;25.50;40.08;99213.31;4948352;28;19956;-84
2022/04/24 09:54:45;;;;;;;;;;;;;;;25.42;40.48;99214.94;4948808;28;20483;-85
2022/04/24 09:57:11;;;;;;;;;;;;;;;25.77;41.98;99209.22;4950435;28;19926;-85
2022/04/24 09:59:37;;;;;;;;;;;;;;;25.86;39.81;99208.44;4950865;29;20376;-84
2022/04/24 10:02:04;;;;;;;;;;;;;;;25.90;39.84;99209.00;4952058;28;20353;-85
2022/04/24 10:04:29;;;;;;;;;;;;;;;25.67;38.84;99192.09;4952237;28;19918;-86
2022/04/24 10:06:55;;;;;;;;;;;;;;;25.48;40.25;99182.00;4952311;28;20014;-85
2022/04/24 10:09:20;;;;;;;;;;;;;;;25.36;40.87;99190.19;4952097;28;20460;-85
2022/04/24 10:11:46;;;;;;;;;;;;;;;25.37;39.86;99188.31;4952212;28;19966;-86
2022/04/24 10:14:14;;;;;;;;;;;;;;;25.89;39.25;99186.56;4952021;28;19918;-86
2022/04/24 10:16:48;;;;;;;;;;;;;;;25.35;40.41;99174.97;4951752;28;19918;-85
2022/04/24 10:19:36;;;;;;;;;;;;;;;25.27;40.80;99177.44;4951582;28;20404;-85
2022/04/24 10:22:07;;;;;;;;;;;;;;;25.02;40.68;99182.19;4952253;28;20397;-86
2022/04/24 10:24:42;;;;;;;;;;;;;;;25.02;40.06;99175.91;4952735;28;19918;-86
2022/04/24 10:27:07;;;;;;;;;;;;;;;24.94;40.90;99176.56;4952554;28;19914;-87
2022/04/24 10:29:33;;;;;;;;;;;;;;;25.36;42.63;99157.78;4964917;28;19965;-86
2022/04/24 10:31:59;;;;;;;;;;;;;;;25.71;40.64;99158.44;4960367;28;20015;-88
2022/04/24 10:34:26;;;;;;;;;;;;;;;25.73;40.88;99153.75;4969619;28;19925;-87
2022/04/24 10:36:52;;;;;;;;;;;;;;;25.54;39.66;99160.72;4970463;28;19956;-86
2022/04/24 10:39:19;;;;;;;;;;;;;;;25.66;40.58;99160.69;4970570;28;19992;-85
2022/04/24 10:41:55;;;;;;;;;;;;;;;26.00;42.08;99146.97;4970780;28;20419;-85
2022/04/24 10:44:22;;;;;;;;;;;;;;;25.79;41.60;99160.47;4970408;28;19918;-85
2022/04/24 10:46:48;;;;;;;;;;;;;;;25.58;41.02;99153.25;4970543;28;20684;-85
2022/04/24 10:49:15;;;;;;;;;;;;;;;25.62;42.21;99149.28;4970399;28;20008;-86
2022/04/24 10:51:42;;;;;;;;;;;;;;;25.69;41.03;99147.75;4962405;28;20416;-86
2022/04/24 10:54:08;;;;;;;;;;;;;;;25.61;40.64;99141.31;4951015;29;20414;-84
2022/04/24 10:56:35;;;;;;;;;;;;;;;25.34;39.93;99143.53;4951058;28;19921;-85
2022/04/24 10:59:11;;;;;;;;;;;;;;;25.41;42.17;99138.50;4951265;28;19915;-85
2022/04/24 11:01:37;;;;;;;;;;;;;;;25.49;39.53;99144.09;4951244;28;20386;-86
2022/04/24 11:04:06;;;;;;;;;;;;;;;25.73;40.50;99127.63;4951010;28;19981;-85
2022/04/24 11:06:31;;;;;;;;;;;;;;;26.03;39.06;99135.91;4950994;28;20029;-85
2022/04/24 11:09:06;;;;;;;;;;;;;;;25.73;41.26;99119.50;4950717;28;20424;-87
2022/04/24 11:11:33;;;;;;;;;;;;;;;25.92;40.81;99116.03;4950864;28;19925;-85
2022/04/24 11:14:00;;;;;;;;;;;;;;;26.04;38.22;99106.03;4951228;28;19919;-86
2022/04/24 11:16:25;;;;;;;;;;;;;;;26.13;40.69;99109.75;4950970;28;19941;-86
2022/04/24 11:18:52;;;;;;;;;;;;;;;26.19;39.25;99098.38;4951334;28;19922;-85
2022/04/24 11:21:19;;;;;;;;;;;;;;;25.92;39.51;99107.09;4950195;28;19923;-86
2022/04/24 11:23:45;;;;;;;;;;;;;;;26.06;40.24;99097.78;4951117;28;20005;-85
2022/04/24 11:26:12;;;;;;;;;;;;;;;26.01;40.13;99091.94;4950270;28;20404;-88
2022/04/24 11:28:49;;;;;;;;;;;;;;;25.83;38.87;99081.75;4950794;28;19919;-86
2022/04/24 11:31:19;;;;;;;;;;;;;;;25.52;39.11;99091.69;4950770;28;19918;-86
2022/04/24 11:33:50;;;;;;;;;;;;;;;25.49;38.04;99076.59;4950260;28;19922;-86
2022/04/24 11:36:19;;;;;;;;;;;;;;;25.70;37.47;99083.78;4951084;28;20754;-85
2022/04/24 11:38:45;;;;;;;;;;;;;;;26.13;39.15;99073.78;4955745;29;19942;-86
2022/04/24 11:41:14;;;;;;;;;;;;;;;25.95;38.69;99066.28;4957171;28;19922;-87
2022/04/24 11:43:40;;;;;;;;;;;;;;;26.30;38.06;99074.97;4957841;28;19914;-86
2022/04/24 11:51:39;;;;;;;;;;;;;;;26.17;38.89;99057.16;4954087;29;19925;-88
2022/04/24 11:54:06;;;;;;;;;;;;;;;26.16;38.03;99050.00;4955139;28;19919;-87
2022/04/24 11:56:32;;;;;;;;;;;;;;;25.91;36.62;99049.47;4954614;28;19922;-89
2022/04/24 11:59:17;;;;;;;;;;;;;;;25.97;38.53;99041.84;4952502;28;19914;-86
2022/04/24 12:01:44;;;;;;;;;;;;;;;26.07;36.76;99032.81;4950029;28;19918;-87
2022/04/24 12:04:19;;;;;;;;;;;;;;;26.14;36.60;99029.56;4954816;28;19918;-87
2022/04/24 12:06:44;;;;;;;;;;;;;;;26.20;37.19;99035.25;4951021;28;19915;-86
2022/04/24 12:09:10;;;;;;;;;;;;;;;26.47;36.32;99032.88;4951502;28;19918;-87
2022/04/24 12:11:36;;;;;;;;;;;;;;;26.54;35.72;99024.06;4950296;28;19918;-85
2022/04/24 12:14:01;;;;;;;;;;;;;;;26.43;35.83;99016.06;4948947;28;19981;-84
2022/04/24 12:16:28;;;;;;;;;;;;;;;26.48;35.35;99007.50;4949628;28;19918;-85
2022/04/24 12:18:59;;;;;;;;;;;;;;;26.53;36.65;99005.25;4949858;28;20397;-86
2022/04/24 12:21:26;;;;;;;;;;;;;;;26.32;35.57;99008.97;4950408;28;19993;-85
2022/04/24 12:23:52;;;;;;;;;;;;;;;26.06;34.97;98998.66;4950376;28;19924;-87
2022/04/24 12:26:18;;;;;;;;;;;;;;;26.12;34.81;99002.66;4949314;28;20008;-85
2022/04/24 12:28:43;;;;;;;;;;;;;;;26.34;35.93;98989.91;4949466;28;20548;-87
2022/04/24 12:31:27;;;;;;;;;;;;;;;26.52;35.61;98990.88;4950012;28;19919;-84
2022/04/24 12:33:53;;;;;;;;;;;;;;;26.72;35.59;98991.75;4950250;28;20681;-86
2022/04/24 12:36:19;;;;;;;;;;;;;;;26.45;35.94;98987.88;4950295;28;20001;-85
2022/04/24 12:38:55;;;;;;;;;;;;;;;26.36;35.63;98990.59;4949503;28;20374;-85
2022/04/24 12:41:27;;;;;;;;;;;;;;;26.44;37.37;98990.72;4949271;28;19918;-84
2022/04/24 12:43:53;;;;;;;;;;;;;;;26.48;35.86;98980.47;4947785;29;20370;-84
2022/04/24 12:46:18;;;;;;;;;;;;;;;26.50;37.04;98987.47;4949569;28;19933;-84
2022/04/24 12:48:47;;;;;;;;;;;;;;;26.69;35.11;98983.06;4949755;28;19918;-87